CheckWX is a tool to help pilots better visualize weather data.  It is not intended as a substitute for an official pre-flight weather briefing.

10:18:31 UTC

1A9 METAR
Prattville - Grouby Field Airport
Prattville, Alabama, USA
Current

24 mins ago

K1A9 260955Z AUTO 00000KT 5SM BR CLR 07/07 A2990 RMK AO2 T00660066
Observed
Feb-26 @ 09:55 UTC
Visibility
5 SM
Flight Rules
MVFR
Conditions
Mist
Cloud Levels
  • Clear skies
Temperature
C / 45°F
Dewpoint
C / 45°F
Humidity
100%
Altimeter
29.9" Hg
Pressure
1012.52 hPa
Previous

44 mins ago

K1A9 260935Z AUTO 00000KT 10SM CLR 08/08 A2990 RMK AO2 T00750075
Observed
Feb-26 @ 09:35 UTC
Visibility
10 SM
Flight Rules
VFR
Cloud Levels
  • Clear skies
Temperature
C / 46°F
Dewpoint
C / 46°F
Humidity
100%
Altimeter
29.9" Hg
Pressure
1012.52 hPa
Previous

1 hour ago

K1A9 260915Z AUTO 00000KT 10SM CLR 08/08 A2990 RMK AO2 T00750075
Observed
Feb-26 @ 09:15 UTC
Visibility
10 SM
Flight Rules
VFR
Cloud Levels
  • Clear skies
Temperature
C / 46°F
Dewpoint
C / 46°F
Humidity
100%
Altimeter
29.9" Hg
Pressure
1012.52 hPa